Logo AVAMET
Benvolgut visitant, si us plau, ingressa Recuperar contrasenya
AVAMET paisatges

Alcoi IES Pare Vitòria

Dades diàries. Acumulats / Últims 30 dies disponibles

Data Temperatura (°C) Humitat rel. (%) Pressió rel. (hPa) Vent (km/h) Precipitació
Mínima Mitjana Màxima Amplitud
tèrmica
Mínima Mitjana Màxima Mínima Mitjana Màxima Predom. Mitjana Ràfega
màxima
Total
(mm)
Índex-n
Mínima Mitjana Màxima Mínima Mitjana Màxima n
0 a 1
P0 max
mm 5'
Dades mensuals acumulades fins l'últim dia disponible
09/2020 10,6 15,4 18,9 20,2 20,6 25,7 29,4 18,8 17 49 83 1.010 1.018 1.026   7,9 64,4 4,8
Dades anuals acumulades fins l'últim dia disponible
2020 0,1 12,6 26,3 17,1 5,7 22,3 39,5 39,4 1 52 91 1.002 1.018 1.036   7,9 96,6 398,0
Últims 30 dies disponibles
29-09-2020 11,1     16,8     23,4 12,3 36 55 68 1.016 1.018 1.020 NNE 4,8 25,7 0,0
28-09-2020 10,6     17,1     25,8 15,2 36 55 1.015 1.016 1.019 SW 6,4 32,2 0,0
27-09-2020 13,3     17,9     23,8 10,5 36 54 1.010 1.012 1.015 WSW 10,3 46,7 0,0
26-09-2020 12,6     16,9     22,1 9,5 20 29 35 1.013 1.017 1.020 W 9,7 38,6 0,0
25-09-2020 15,3     18,7     21,4 6,1 17 37 55 1.013 1.016 1.021 SW 16,7 64,4 0,0
24-09-2020 18,1     22,5     27,3 9,2 27 41 55 1.012 1.014 1.015 SW 15,6 61,2 0,0
23-09-2020 18,7     22,8     27,9 9,2 20 39 50 1.011 1.013 1.014 SW 6,6 40,2 0,0
22-09-2020 16,4     21,0     26,2 9,8 SSE 7,9 41,8 0,0
21-09-2020 16,4     20,9     26,4 10,0 SW 7,4 33,8 0,0
20-09-2020 15,4     20,4     25,2 9,8 WSW 8,5 43,5 0,0
19-09-2020 16,8     21,2     25,7 8,9 SW 10,3 46,7 0,0
18-09-2020 15,9     19,8     22,4 6,5 S 13,2 62,8 4,8
17-09-2020 18,9     22,4     27,0 8,1 S 6,0 43,5 0,0
16-09-2020 17,7     23,2     29,4 11,7 SSE 6,9 35,4 0,0
15-09-2020 17,5     22,8     27,8 10,3 NNE 7,1 30,6 0,0
14-09-2020 16,2     21,6     27,7 11,5 27 46 58 1.021 1.023 1.024 SW 6,4 30,6 0,0
13-09-2020 16,3     22,1     28,9 12,6 30 45 57 1.021 1.022 1.024 SSE 4,8 24,1 0,0
12-09-2020 16,3     22,2     28,7 12,4 SSE 7,7 43,5 0,0
11-09-2020 16,0     22,1     28,4 12,4 SSE 9,0 46,7 0,0
10-09-2020 14,9     19,7     25,6 10,7 NNE 6,0 33,8 0,0
09-09-2020 14,8     18,6     23,7 8,9 40 55 66 1.020 1.022 1.023 NE 5,3 29,0 0,0
08-09-2020 14,2     17,5     21,4 7,2 34 58 76 1.021 1.023 1.024 NNE 5,3 29,0 0,0
07-09-2020 16,0     17,7     20,6 4,6 59 66 72 1.015 1.018 1.022 NNE 7,4 37,0 0,0
06-09-2020 14,6     20,6     28,6 14,0 34 59 78 1.015 1.017 1.019 SW 6,3 33,8 0,0
05-09-2020 14,4     20,8     27,5 13,1 20 55 83 1.018 1.020 1.023 NNE 6,4 29,0 0,0
04-09-2020 14,1     20,2     27,4 13,3 35 51 68 1.022 1.024 1.026 SSE 5,5 24,1 0,0
03-09-2020 15,1     19,8     25,1 10,0 40 59 69 1.020 1.022 1.025 SSE 8,5 38,6 0,0
02-09-2020 15,6     19,4     24,7 9,1 40 59 70 1.014 1.016 1.020 SSE 6,9 40,2 0,0
01-09-2020 14,0     19,3     24,7 10,7 37 55 67 1.011 1.015 1.018 SW 5,6 35,4 0,0
31-08-2020 12,3     18,0     24,7 12,4 20 51 67 1.017 1.019 1.021 SSE 9,0 51,5 0,0
Últims 13 mesos disponibles
08/2020 12,3 20,2 26,3 25,5 22,2 31,5 39,5 27,2 18 41 65 1.003 1.014 1.019 SSE 8,1 86,9 16,4
07/2020 16,4 18,7 22,5 24,3 26,1 30,3 36,7 20,3 34 50 63 1.011 1.016 1.020 NNE 7,8 53,1 0,4
06/2020 11,1 15,8 20,6 21,2 18,3 26,8 32,2 21,1 29 46 71 1.005 1.015 1.021 SSE 8,8 62,8 21,2
05/2020 9,1 13,5 18,4 18,3 15,7 23,7 29,7 20,6 25 49 72 1.006 1.017 1.026 SSE 7,7 67,6 40,8
04/2020 4,8 8,8 13,2 12,4 12,1 16,9 21,2 16,4 30 63 84 1.007 1.017 1.026 NNE 6,7 61,2 46,8
03/2020 4,1 7,8 16,2 11,0 5,7 14,8 25,9 21,8 31 61 88 1.009 1.018 1.027 NE 9,7 96,6 75,2
02/2020 3,4 8,2 12,3 12,6 11,4 18,1 23,2 19,8 4 50 80 1.015 1.026 1.034 WSW 7,3 53,1 1,6
01/2020 0,1 4,9 10,7 8,4 6,1 13,0 17,1 17,0 33 60 86 1.016 1.026 1.033 SSE 7,1 78,9 190,8
12/2019 2,1 7,4 15,0 10,8 8,6 14,9 22,2 20,1 32 57 87 1.004 1.020 1.033 SW 10,1 104,6 69,8
11/2019 1,6 8,1 16,8 11,3 9,9 15,0 22,0 20,4 44 52 67 1.000 1.012 1.020 WSW 13,9 91,7 13,2
10/2019 8,7 13,0 18,1 17,2 11,8 22,4 29,6 20,9 33 54 82 1.009 1.017 1.023 SW 6,8 67,6 49,4
09/2019 11,3 16,7 19,7 20,5 17,4 24,9 31,1 19,8 36 62 89 1.010 1.018 1.024 SSE 6,7 57,9 119,6
08/2019 15,0 19,2 24,8 24,6 24,3 30,4 37,3 22,3 17 47 76 1.010 1.015 1.019 NNE 7,8 56,3 16,4
Tots els anys disponibles
2019 -1,4 11,3 24,8 15,8 7,4 20,9 37,9 39,3 17 50 89 996 1.018 1.034 NNE 8,8 104,6 460,2
Temperatura (°C)
Humitat relativa (%)
Velocitat del vent i ràfega màxima (km/h)
Direcció del vent (°)
Pressió (hPa)
Precipitació (mm)
Nota sobre les dades: s'avisa a l'usuari de la provisionalitat i no oficialitat d'aquestes dades
Logo AVAMET blanc
Web allotjada a Sollutia
Llicència de Creative CommonsLa web d'AVAMET i els seus continguts estan subjectes a una llicència de
Reconeixement - No Comercial - Compartir igual
Últimes estacions: Monteagudo del Castillo - El Portero (Limítrofe-Terol/Soci), Llocnou d'en Fenollet - El Molló (Soci), Castelló de la Plana - Grup Sant Agustí (Soci), Llíria - Urb. San Gerardo (Soci), Xàtiva - Ausiàs March (Soci), Gandia - Parpalló/Borrell (AVAMET), Olocau del Rei - La Magdalena (Electra/Soci), Ademuz - IES Ademuz (Soci), La Jana (Ajuntament Soci), - - -